Time;durP1;ratioP1;P1;durP2;ratioP2;P2;SDS_P1;SDS_P2;PMS_P1;PMS_P2;Temp;Humidity;BMP_temperature;BMP_pressure;BME280_temperature;BME280_humidity;BME280_pressure;Samples;Min_cycle;Max_cycle;Signal;HPM_P1;HPM_P2
2023/04/08 00:01:00;;;;;;;45.75;23.45;;;10.60;99.90;;;;;;4973845;28;20113;-85
2023/04/08 00:03:26;;;;;;;36.25;24.10;;;10.70;99.90;;;;;;4973511;28;20023;-85
2023/04/08 00:05:52;;;;;;;36.22;21.90;;;10.60;99.90;;;;;;4973296;28;20475;-85
2023/04/08 00:08:17;;;;;;;42.25;24.10;;;10.60;99.90;;;;;;4973633;28;20037;-85
2023/04/08 00:10:43;;;;;;;39.05;23.50;;;10.60;99.90;;;;;;4973056;28;20455;-85
2023/04/08 00:13:08;;;;;;;39.95;23.63;;;10.60;99.90;;;;;;4973351;28;20045;-85
2023/04/08 00:15:35;;;;;;;39.42;24.73;;;10.60;99.90;;;;;;4972681;28;20023;-85
2023/04/08 00:18:01;;;;;;;44.22;24.45;;;10.60;99.90;;;;;;4973247;28;20058;-85
2023/04/08 00:20:26;;;;;;;40.83;24.17;;;10.60;99.90;;;;;;4973178;28;20034;-85
2023/04/08 00:22:52;;;;;;;42.88;24.05;;;10.60;99.90;;;;;;4972872;28;20034;-84
2023/04/08 00:25:17;;;;;;;44.97;25.38;;;10.60;99.90;;;;;;4972893;28;20467;-85
2023/04/08 00:27:43;;;;;;;45.40;25.42;;;10.70;99.90;;;;;;4973229;28;20062;-85
2023/04/08 00:30:09;;;;;;;43.95;25.25;;;10.70;99.90;;;;;;4972957;28;20033;-86
2023/04/08 00:32:35;;;;;;;43.75;24.98;;;10.70;99.90;;;;;;4972845;28;20516;-85
2023/04/08 00:35:01;;;;;;;38.75;24.17;;;10.70;99.90;;;;;;4973652;28;20035;-85
2023/04/08 00:37:27;;;;;;;48.45;25.77;;;10.70;99.90;;;;;;4972925;28;20114;-85
2023/04/08 00:39:53;;;;;;;46.67;25.10;;;10.70;99.90;;;;;;4973372;28;20063;-85
2023/04/08 00:42:19;;;;;;;44.80;26.13;;;10.70;99.90;;;;;;4973335;28;20070;-85
2023/04/08 00:44:45;;;;;;;41.95;26.13;;;10.70;99.90;;;;;;4972444;28;20030;-85
2023/04/08 00:47:14;;;;;;;42.42;26.15;;;10.70;99.90;;;;;;4973267;28;20102;-85
2023/04/08 00:49:40;;;;;;;48.17;27.52;;;10.70;99.90;;;;;;4973096;28;20031;-85
2023/04/08 00:52:06;;;;;;;43.50;26.55;;;10.60;99.90;;;;;;4972745;28;20078;-85
2023/04/08 00:54:31;;;;;;;45.45;26.25;;;10.50;99.90;;;;;;4973031;28;20034;-85
2023/04/08 00:57:00;;;;;;;44.80;27.30;;;10.50;99.90;;;;;;4972965;28;20023;-85
2023/04/08 00:59:27;;;;;;;45.42;26.13;;;10.50;99.90;;;;;;4972560;28;20031;-86
2023/04/08 01:02:21;;;;;;;45.72;27.17;;;10.50;99.90;;;;;;4973352;28;20034;-85
2023/04/08 01:05:05;;;;;;;45.72;28.02;;;10.50;99.90;;;;;;4972293;28;20027;-86
2023/04/08 01:07:34;;;;;;;46.67;27.48;;;10.50;99.90;;;;;;4973038;28;20022;-86
2023/04/08 01:10:22;;;;;;;51.10;28.42;;;10.50;99.90;;;;;;4973193;28;20063;-85
2023/04/08 01:12:52;;;;;;;45.97;27.48;;;10.50;99.90;;;;;;4972240;28;20159;-85
2023/04/08 01:15:18;;;;;;;50.50;27.63;;;10.50;99.90;;;;;;4973134;28;20019;-85
2023/04/08 01:17:45;;;;;;;43.25;27.35;;;10.40;99.90;;;;;;4972777;28;20056;-86
2023/04/08 01:20:13;;;;;;;49.50;27.15;;;10.50;99.90;;;;;;4972341;28;20032;-85
2023/04/08 01:22:42;;;;;;;46.90;27.38;;;10.50;99.90;;;;;;4972763;28;20066;-85
2023/04/08 01:25:26;;;;;;;48.63;28.48;;;10.50;99.90;;;;;;4973135;28;20112;-85
2023/04/08 01:27:55;;;;;;;44.33;27.67;;;10.50;99.90;;;;;;4972254;28;20063;-86
2023/04/08 01:30:24;;;;;;;48.33;28.10;;;10.50;99.90;;;;;;4973074;28;20113;-85
2023/04/08 01:32:52;;;;;;;43.85;26.48;;;10.50;99.90;;;;;;4971168;28;20061;-85
2023/04/08 01:35:18;;;;;;;46.90;27.55;;;10.40;99.90;;;;;;4972707;28;20031;-85
2023/04/08 01:37:45;;;;;;;42.75;26.65;;;10.40;99.90;;;;;;4973588;28;20118;-84
2023/04/08 01:40:11;;;;;;;49.30;27.23;;;10.40;99.90;;;;;;4975743;28;20030;-85
2023/04/08 01:42:38;;;;;;;46.22;28.27;;;10.40;99.90;;;;;;4975712;28;20027;-84
2023/04/08 01:45:04;;;;;;;48.38;27.65;;;10.40;99.90;;;;;;4975965;28;20114;-85
2023/04/08 01:47:31;;;;;;;47.85;27.48;;;10.40;99.90;;;;;;4975404;28;20034;-85
2023/04/08 01:49:58;;;;;;;47.28;27.77;;;10.40;99.90;;;;;;4976448;28;20038;-85
2023/04/08 01:52:25;;;;;;;45.72;27.27;;;10.40;99.90;;;;;;4976308;28;20035;-85
2023/04/08 01:54:51;;;;;;;42.38;28.27;;;10.50;99.90;;;;;;4975214;28;20058;-85
2023/04/08 01:57:23;;;;;;;47.22;27.00;;;10.60;99.90;;;;;;4975924;28;20027;-85
2023/04/08 01:59:55;;;;;;;44.75;25.98;;;10.60;99.90;;;;;;4976013;28;20133;-85
2023/04/08 02:02:23;;;;;;;41.42;26.45;;;10.70;99.90;;;;;;4975808;28;20098;-85
2023/04/08 02:04:49;;;;;;;47.58;27.52;;;10.70;99.90;;;;;;4975954;28;20049;-85
2023/04/08 02:07:14;;;;;;;44.55;26.50;;;10.70;99.90;;;;;;4975674;28;20027;-85
2023/04/08 02:09:41;;;;;;;42.13;25.73;;;10.80;99.90;;;;;;4974956;28;20034;-85
2023/04/08 02:12:06;;;;;;;45.50;27.42;;;10.80;99.90;;;;;;4975696;28;20031;-85
2023/04/08 02:14:32;;;;;;;46.50;27.25;;;10.80;99.90;;;;;;4975545;28;20046;-85
2023/04/08 02:17:26;;;;;;;40.17;25.63;;;10.80;99.90;;;;;;4974782;28;20043;-85
2023/04/08 02:19:55;;;;;;;47.40;27.13;;;10.80;99.90;;;;;;4975446;28;20027;-85
2023/04/08 02:22:49;;;;;;;40.42;25.67;;;10.80;99.90;;;;;;4974921;28;20026;-85
2023/04/08 02:25:16;;;;;;;45.20;25.25;;;10.80;99.90;;;;;;4968395;28;20500;-85
2023/04/08 02:27:43;;;;;;;43.20;26.52;;;10.80;99.90;;;;;;4975367;28;20471;-85
2023/04/08 02:30:10;;;;;;;54.75;25.70;;;10.80;99.90;;;;;;4974716;28;20471;-85
2023/04/08 02:32:37;;;;;;;43.88;27.80;;;10.80;99.90;;;;;;4975119;28;20479;-85
2023/04/08 02:35:04;;;;;;;45.88;27.45;;;10.80;99.90;;;;;;4975413;28;20058;-85
2023/04/08 02:37:32;;;;;;;41.10;26.52;;;10.80;99.90;;;;;;4974519;28;20159;-85
2023/04/08 02:39:59;;;;;;;44.60;26.27;;;10.80;99.90;;;;;;4975470;28;20070;-85
2023/04/08 02:42:25;;;;;;;40.40;24.48;;;10.80;99.90;;;;;;4975499;28;20479;-85
2023/04/08 02:44:50;;;;;;;38.55;23.70;;;10.80;99.90;;;;;;4974251;28;20129;-85
2023/04/08 02:47:16;;;;;;;35.78;22.27;;;10.90;99.90;;;;;;4975340;28;20030;-85
2023/04/08 02:49:42;;;;;;;34.75;21.75;;;11.40;99.90;;;;;;4974309;28;20022;-85
2023/04/08 02:52:07;;;;;;;37.53;22.38;;;10.80;99.90;;;;;;4974025;28;20026;-85
2023/04/08 02:54:33;;;;;;;34.60;21.90;;;10.80;99.90;;;;;;4974717;28;20045;-85
2023/04/08 02:56:58;;;;;;;36.08;21.63;;;10.80;99.90;;;;;;4975163;28;20375;-85
2023/04/08 02:59:24;;;;;;;33.70;21.25;;;10.80;99.90;;;;;;4974231;28;20027;-84
2023/04/08 03:01:50;;;;;;;31.48;20.90;;;10.70;99.90;;;;;;4974431;28;20055;-84
2023/04/08 03:04:15;;;;;;;28.90;20.02;;;10.70;99.90;;;;;;4973821;28;20027;-85
2023/04/08 03:06:41;;;;;;;30.85;19.55;;;10.70;99.90;;;;;;4974588;28;20041;-85
2023/04/08 03:09:06;;;;;;;30.75;18.77;;;10.60;99.90;;;;;;4974939;28;20022;-85
2023/04/08 03:11:32;;;;;;;30.65;20.17;;;10.60;99.90;;;;;;4973752;28;20033;-85
2023/04/08 03:13:58;;;;;;;46.15;20.65;;;10.60;99.90;;;;;;4974545;28;20390;-84
2023/04/08 03:16:23;;;;;;;33.53;21.88;;;10.50;99.90;;;;;;4974494;28;20030;-84
2023/04/08 03:18:50;;;;;;;31.83;21.70;;;10.50;99.90;;;;;;4973676;28;20046;-85
2023/04/08 03:21:15;;;;;;;35.35;22.08;;;10.40;99.90;;;;;;4974411;28;20078;-86
2023/04/08 03:23:41;;;;;;;33.60;19.88;;;10.40;99.90;;;;;;4974156;28;20030;-86
2023/04/08 03:26:07;;;;;;;34.10;20.00;;;10.40;99.90;;;;;;4973618;28;20121;-85
2023/04/08 03:28:32;;;;;;;32.00;18.65;;;10.40;99.90;;;;;;4974331;28;20364;-85
2023/04/08 03:30:59;;;;;;;46.47;17.40;;;10.40;99.90;;;;;;4974516;28;20118;-85
2023/04/08 03:33:25;;;;;;;31.75;17.40;;;10.30;99.90;;;;;;4973694;28;20039;-85
2023/04/08 03:35:52;;;;;;;27.25;15.10;;;10.30;99.90;;;;;;4973943;28;20038;-84
2023/04/08 03:38:17;;;;;;;36.63;16.13;;;10.20;99.90;;;;;;4974157;28;20038;-85
2023/04/08 03:40:43;;;;;;;29.75;16.40;;;10.20;99.90;;;;;;4972945;28;20499;-85
2023/04/08 03:43:10;;;;;;;24.20;14.63;;;10.10;99.90;;;;;;4974381;28;20057;-85
2023/04/08 03:45:36;;;;;;;56.30;12.90;;;10.10;99.90;;;;;;4973932;28;20467;-85
2023/04/08 03:48:01;;;;;;;34.08;13.13;;;10.10;99.90;;;;;;4973428;28;20034;-85
2023/04/08 03:50:27;;;;;;;15.82;12.20;;;10.00;99.90;;;;;;4973717;28;20053;-85
2023/04/08 03:52:52;;;;;;;21.13;12.93;;;10.00;99.90;;;;;;4973863;28;20125;-85
2023/04/08 03:55:18;;;;;;;28.92;11.95;;;10.00;99.90;;;;;;4973461;28;20023;-84
2023/04/08 03:57:44;;;;;;;15.07;12.18;;;9.90;99.90;;;;;;4973787;28;20030;-85
2023/04/08 04:00:10;;;;;;;14.20;12.63;;;9.90;99.90;;;;;;4973616;28;20062;-85
2023/04/08 04:02:36;;;;;;;21.38;11.35;;;9.90;99.90;;;;;;4972869;28;20050;-85
2023/04/08 04:05:01;;;;;;;21.40;12.50;;;9.80;99.90;;;;;;4974541;28;20474;-85
2023/04/08 04:07:27;;;;;;;12.88;10.80;;;9.80;99.90;;;;;;4973081;28;20486;-85
2023/04/08 04:09:55;;;;;;;36.88;11.00;;;9.80;99.90;;;;;;4973653;28;20023;-85
2023/04/08 04:12:20;;;;;;;29.13;11.27;;;9.90;99.90;;;;;;4973792;28;20102;-85
2023/04/08 04:14:46;;;;;;;24.65;10.82;;;9.80;99.90;;;;;;4972833;28;20126;-85
2023/04/08 04:17:11;;;;;;;24.30;9.95;;;9.80;99.90;;;;;;4973353;28;20487;-85
2023/04/08 04:19:37;;;;;;;11.15;10.15;;;9.80;99.90;;;;;;4973265;28;20039;-85
2023/04/08 04:22:02;;;;;;;11.38;9.85;;;9.70;99.90;;;;;;4973283;28;20530;-84
2023/04/08 04:24:28;;;;;;;10.80;9.70;;;9.80;99.90;;;;;;4973658;28;20031;-84
2023/04/08 04:26:53;;;;;;;27.58;11.18;;;9.70;99.90;;;;;;4973265;28;20387;-85
2023/04/08 04:29:19;;;;;;;28.40;11.65;;;9.60;99.90;;;;;;4972825;28;20027;-84
2023/04/08 04:31:44;;;;;;;13.98;11.15;;;9.50;99.90;;;;;;4973359;28;20050;-84
2023/04/08 04:34:10;;;;;;;12.70;11.40;;;9.30;99.90;;;;;;4973359;28;20095;-84
2023/04/08 04:36:36;;;;;;;16.02;10.95;;;9.30;99.90;;;;;;4972475;28;20110;-85
2023/04/08 04:39:01;;;;;;;31.48;11.25;;;9.40;99.90;;;;;;4973468;28;20041;-85
2023/04/08 04:41:27;;;;;;;12.95;11.65;;;9.50;99.90;;;;;;4956349;28;20106;-85
2023/04/08 04:43:52;;;;;;;17.30;11.10;;;9.50;99.90;;;;;;4937199;29;20027;-85
2023/04/08 04:46:18;;;;;;;30.25;11.45;;;9.50;99.90;;;;;;4953120;29;20031;-85
2023/04/08 04:48:43;;;;;;;15.82;11.90;;;9.40;99.90;;;;;;4953169;29;20027;-84
2023/04/08 04:51:09;;;;;;;15.77;12.10;;;9.40;99.90;;;;;;4953230;29;20027;-85
2023/04/08 04:53:35;;;;;;;12.70;11.48;;;9.50;99.90;;;;;;4953800;29;20574;-85
2023/04/08 04:56:00;;;;;;;13.80;12.20;;;9.50;99.90;;;;;;4954160;29;20019;-85
2023/04/08 04:58:26;;;;;;;40.55;12.75;;;9.60;99.90;;;;;;4953411;29;20117;-85
2023/04/08 05:00:52;;;;;;;14.77;10.23;;;9.60;99.90;;;;;;4953649;29;20035;-84
2023/04/08 05:03:17;;;;;;;16.20;10.77;;;9.50;99.90;;;;;;4953901;29;20497;-84
2023/04/08 05:05:43;;;;;;;38.38;11.90;;;9.50;99.90;;;;;;4953131;29;20027;-84
2023/04/08 05:08:08;;;;;;;13.38;11.98;;;9.40;99.90;;;;;;4954120;29;20079;-84
2023/04/08 05:10:34;;;;;;;22.25;11.77;;;9.40;99.90;;;;;;4953596;29;20083;-85
2023/04/08 05:13:00;;;;;;;20.02;12.40;;;9.50;99.90;;;;;;4955747;28;20114;-84
2023/04/08 05:15:25;;;;;;;15.48;13.48;;;9.50;99.90;;;;;;4957573;29;20032;-85
2023/04/08 05:17:51;;;;;;;24.70;12.55;;;9.50;99.90;;;;;;4956335;29;20570;-84
2023/04/08 05:20:16;;;;;;;147.88;14.55;;;9.50;99.90;;;;;;4957233;29;20482;-85
2023/04/08 05:22:44;;;;;;;54.80;12.45;;;9.50;99.90;;;;;;4957259;29;20524;-85
2023/04/08 05:25:10;;;;;;;17.35;13.50;;;9.50;99.90;;;;;;4956704;29;20186;-85
2023/04/08 05:27:36;;;;;;;33.72;13.43;;;9.50;99.90;;;;;;4956938;29;20038;-84
2023/04/08 05:30:01;;;;;;;27.77;14.48;;;9.50;99.90;;;;;;4957379;29;20031;-85
2023/04/08 05:32:28;;;;;;;16.48;14.60;;;9.50;99.90;;;;;;4975035;28;20383;-84
2023/04/08 05:34:54;;;;;;;16.42;14.23;;;9.50;99.90;;;;;;4975290;28;20049;-85
2023/04/08 05:37:19;;;;;;;17.55;14.43;;;10.30;99.90;;;;;;4976601;28;20023;-84
2023/04/08 05:39:45;;;;;;;16.70;14.23;;;9.60;99.90;;;;;;4975498;28;20518;-85
2023/04/08 05:42:12;;;;;;;27.08;14.43;;;9.70;99.90;;;;;;4976410;28;20105;-86
2023/04/08 05:44:40;;;;;;;24.23;13.35;;;9.70;99.90;;;;;;4975281;28;20027;-85
2023/04/08 05:47:06;;;;;;;18.33;13.70;;;9.70;99.90;;;;;;4974685;28;20110;-84
2023/04/08 05:49:32;;;;;;;26.80;13.43;;;9.60;99.90;;;;;;4975276;28;20118;-85
2023/04/08 05:51:58;;;;;;;16.38;13.05;;;9.60;99.90;;;;;;4975577;28;20126;-84
2023/04/08 05:54:24;;;;;;;14.93;13.43;;;9.60;99.90;;;;;;4974654;28;20542;-84
2023/04/08 05:56:49;;;;;;;15.68;14.00;;;9.70;99.90;;;;;;4975713;28;20054;-85
2023/04/08 05:59:15;;;;;;;27.00;13.63;;;9.70;99.90;;;;;;4974462;28;20030;-85
2023/04/08 06:01:41;;;;;;;15.20;12.68;;;9.70;99.90;;;;;;4971936;28;20074;-85
2023/04/08 06:04:06;;;;;;;42.47;12.25;;;9.60;99.90;;;;;;4975068;28;20113;-84
2023/04/08 06:06:32;;;;;;;47.65;11.38;;;9.60;99.90;;;;;;4974950;28;20019;-85
2023/04/08 06:08:57;;;;;;;31.55;13.00;;;9.40;99.90;;;;;;4974322;28;20027;-85
2023/04/08 06:11:23;;;;;;;42.42;12.85;;;9.30;99.90;;;;;;4975399;28;20106;-85
2023/04/08 06:13:48;;;;;;;27.90;12.77;;;9.20;99.90;;;;;;4974703;28;20085;-84
2023/04/08 06:16:18;;;;;;;17.70;11.82;;;9.10;99.90;;;;;;4974444;28;20119;-84
2023/04/08 06:18:43;;;;;;;23.60;13.03;;;9.00;99.90;;;;;;4975038;28;20057;-85
2023/04/08 06:21:10;;;;;;;13.48;12.07;;;9.00;99.90;;;;;;4974691;28;20031;-84
2023/04/08 06:23:35;;;;;;;13.25;11.95;;;9.10;99.90;;;;;;4974304;28;20035;-84
2023/04/08 06:26:01;;;;;;;12.85;11.50;;;9.20;99.90;;;;;;4974970;28;20454;-84
2023/04/08 06:28:30;;;;;;;15.48;13.20;;;9.40;99.90;;;;;;4974859;28;20442;-85
2023/04/08 06:30:56;;;;;;;15.70;13.48;;;9.40;99.90;;;;;;4974912;28;20387;-84
2023/04/08 06:33:22;;;;;;;22.42;13.88;;;9.60;99.90;;;;;;4975573;28;20043;-84
2023/04/08 06:35:47;;;;;;;40.92;15.35;;;9.60;99.90;;;;;;4974309;28;20031;-85
2023/04/08 06:38:13;;;;;;;51.65;15.20;;;9.60;99.90;;;;;;4975225;28;20034;-85
2023/04/08 06:40:39;;;;;;;36.58;15.23;;;9.50;99.90;;;;;;4974537;28;20027;-84
2023/04/08 06:43:08;;;;;;;29.73;16.00;;;9.40;99.90;;;;;;4974657;28;20037;-85
2023/04/08 06:45:34;;;;;;;19.98;15.65;;;9.40;99.90;;;;;;4974622;28;20105;-85
2023/04/08 06:48:00;;;;;;;30.75;15.98;;;9.40;99.90;;;;;;4975131;28;20468;-85
2023/04/08 06:50:25;;;;;;;18.40;14.82;;;9.40;99.90;;;;;;4974578;28;20041;-85
2023/04/08 06:52:51;;;;;;;26.60;16.23;;;9.50;99.90;;;;;;4974438;28;20042;-85
2023/04/08 06:55:16;;;;;;;37.33;15.60;;;9.50;99.90;;;;;;4975017;28;20467;-84
2023/04/08 06:57:42;;;;;;;24.08;14.48;;;9.50;99.90;;;;;;4973823;28;20636;-84
2023/04/08 07:00:08;;;;;;;19.55;16.30;;;9.40;99.90;;;;;;4974669;28;20379;-84
2023/04/08 07:02:34;;;;;;;18.98;15.50;;;9.30;99.90;;;;;;4974719;28;20078;-84
2023/04/08 07:05:00;;;;;;;20.52;16.80;;;9.40;99.90;;;;;;4974325;28;20027;-84
2023/04/08 07:07:25;;;;;;;29.10;17.38;;;9.40;99.90;;;;;;4974953;28;20027;-84
2023/04/08 07:09:51;;;;;;;27.55;15.95;;;9.50;99.90;;;;;;4974493;28;20042;-85
2023/04/08 07:12:16;;;;;;;24.15;17.13;;;9.60;99.90;;;;;;4974124;28;20026;-84
2023/04/08 07:14:42;;;;;;;21.45;17.10;;;9.60;99.90;;;;;;4974184;28;20037;-85
2023/04/08 07:17:08;;;;;;;22.00;17.63;;;10.20;99.90;;;;;;4974433;28;20049;-84
2023/04/08 07:19:34;;;;;;;23.83;16.42;;;9.60;99.90;;;;;;4973581;28;20047;-85
2023/04/08 07:22:00;;;;;;;36.47;21.58;;;9.70;99.90;;;;;;4974398;28;20494;-85
2023/04/08 07:24:26;;;;;;;39.83;20.75;;;9.70;99.90;;;;;;4973728;28;20038;-85
2023/04/08 07:26:52;;;;;;;29.42;20.75;;;9.70;99.90;;;;;;4974328;28;20027;-84
2023/04/08 07:29:17;;;;;;;28.17;20.10;;;9.70;99.90;;;;;;4974210;28;20479;-84
2023/04/08 07:31:43;;;;;;;36.50;21.40;;;9.80;99.90;;;;;;4973304;28;20034;-84
2023/04/08 07:34:09;;;;;;;24.30;18.30;;;9.80;99.90;;;;;;4974199;28;20089;-84
2023/04/08 07:36:35;;;;;;;25.60;19.38;;;9.80;99.90;;;;;;4974160;28;20051;-84
2023/04/08 07:39:00;;;;;;;24.48;19.10;;;9.80;99.90;;;;;;4973632;28;20033;-85
2023/04/08 07:41:26;;;;;;;33.75;20.00;;;9.70;99.90;;;;;;4973754;28;20515;-85
2023/04/08 07:43:51;;;;;;;32.70;18.38;;;9.70;99.90;;;;;;4973089;28;20054;-84
2023/04/08 07:46:17;;;;;;;31.48;19.35;;;9.70;99.90;;;;;;4973401;28;20459;-85
2023/04/08 07:48:43;;;;;;;29.60;18.77;;;9.60;99.90;;;;;;4973424;28;20483;-86
2023/04/08 07:51:09;;;;;;;37.45;19.15;;;9.60;99.90;;;;;;4972662;28;20494;-86
2023/04/08 07:53:37;;;;;;;26.33;18.55;;;9.60;99.90;;;;;;4973354;28;20479;-85
2023/04/08 07:56:09;;;;;;;21.25;17.58;;;9.60;99.90;;;;;;4974351;28;20110;-85
2023/04/08 07:58:50;;;;;;;24.88;17.95;;;9.50;99.90;;;;;;4973458;28;20033;-85
2023/04/08 08:01:34;;;;;;;28.73;18.67;;;9.40;99.90;;;;;;4972935;28;20106;-85
2023/04/08 08:04:00;;;;;;;23.17;18.73;;;10.10;99.90;;;;;;4972159;28;20720;-85
2023/04/08 08:06:27;;;;;;;24.80;17.73;;;9.30;99.90;;;;;;4972307;28;20081;-85
2023/04/08 08:08:52;;;;;;;28.25;16.95;;;9.30;99.90;;;;;;4972342;28;20066;-85
2023/04/08 08:11:18;;;;;;;20.15;17.25;;;9.30;99.90;;;;;;4966330;28;20031;-85
2023/04/08 08:13:44;;;;;;;27.70;17.33;;;10.10;99.90;;;;;;4972342;28;20031;-85
2023/04/08 08:16:10;;;;;;;22.80;16.73;;;9.50;99.90;;;;;;4973774;28;20487;-85
2023/04/08 08:18:39;;;;;;;20.65;16.77;;;9.50;99.90;;;;;;4973306;28;20081;-85
2023/04/08 08:21:05;;;;;;;25.58;16.45;;;9.50;99.90;;;;;;4972687;28;20031;-87
2023/04/08 08:23:31;;;;;;;23.23;16.65;;;9.40;99.90;;;;;;4973347;28;20038;-86
2023/04/08 08:26:01;;;;;;;20.65;16.55;;;9.30;99.90;;;;;;4973876;28;20411;-85
2023/04/08 08:28:27;;;;;;;21.17;17.55;;;9.20;99.90;;;;;;4972265;28;20031;-85
2023/04/08 08:30:52;;;;;;;25.83;16.75;;;9.20;99.90;;;;;;4971319;28;20034;-84
2023/04/08 08:33:18;;;;;;;19.65;16.77;;;9.30;99.90;;;;;;4971209;28;20059;-85
2023/04/08 08:35:44;;;;;;;21.83;16.95;;;9.30;99.90;;;;;;4970608;28;20070;-85
2023/04/08 08:38:09;;;;;;;20.40;17.40;;;9.20;99.90;;;;;;4971469;28;20139;-85
2023/04/08 08:40:35;;;;;;;23.17;18.58;;;9.30;99.90;;;;;;4971357;28;20140;-85
2023/04/08 08:43:01;;;;;;;21.55;17.60;;;9.40;99.90;;;;;;4971275;28;20063;-86
2023/04/08 08:45:26;;;;;;;24.67;18.10;;;9.40;99.90;;;;;;4973583;28;20035;-85
2023/04/08 08:47:52;;;;;;;18.58;16.52;;;9.30;99.90;;;;;;4975755;28;20417;-85
2023/04/08 08:50:18;;;;;;;22.55;18.48;;;9.30;99.90;;;;;;4976291;28;20035;-84
2023/04/08 08:52:52;;;;;;;22.23;17.88;;;9.40;99.90;;;;;;4976883;28;20114;-83
2023/04/08 08:55:19;;;;;;;23.48;18.67;;;9.40;99.90;;;;;;4977375;28;20027;-84
2023/04/08 08:57:45;;;;;;;23.15;18.63;;;9.60;99.90;;;;;;4976299;28;20027;-84
2023/04/08 09:00:12;;;;;;;20.75;18.25;;;9.60;99.90;;;;;;4976949;28;20030;-84
2023/04/08 09:02:37;;;;;;;22.83;18.88;;;9.60;99.90;;;;;;4976190;28;20034;-85
2023/04/08 09:05:04;;;;;;;25.23;19.48;;;9.70;99.90;;;;;;4975693;28;20102;-83
2023/04/08 09:07:33;;;;;;;22.20;19.35;;;9.80;99.90;;;;;;4976600;28;20023;-84
2023/04/08 09:09:59;;;;;;;24.20;20.23;;;9.90;99.90;;;;;;4975631;28;20026;-84
2023/04/08 09:12:30;;;;;;;22.73;18.77;;;9.90;99.90;;;;;;4976717;28;20058;-85
2023/04/08 09:15:06;;;;;;;26.17;21.67;;;9.90;99.90;;;;;;4976505;28;20041;-85
2023/04/08 09:17:37;;;;;;;23.73;19.50;;;9.80;99.90;;;;;;4975463;28;20113;-85
2023/04/08 09:20:10;;;;;;;25.40;19.35;;;9.70;99.90;;;;;;4976584;28;20041;-85
2023/04/08 09:23:05;;;;;;;23.35;19.85;;;9.70;99.90;;;;;;4974430;28;20033;-85
2023/04/08 09:25:32;;;;;;;23.73;19.95;;;9.70;99.90;;;;;;4958956;28;20483;-84
2023/04/08 09:27:58;;;;;;;25.73;21.30;;;9.70;99.90;;;;;;4976660;28;20023;-84
2023/04/08 09:30:26;;;;;;;25.08;21.63;;;9.80;99.90;;;;;;4976280;28;20542;-85
2023/04/08 09:32:53;;;;;;;26.63;22.30;;;9.80;99.90;;;;;;4975322;28;20035;-85
2023/04/08 09:35:20;;;;;;;25.83;22.27;;;9.90;99.90;;;;;;4976570;28;20067;-86
2023/04/08 09:37:47;;;;;;;25.70;21.55;;;10.00;99.90;;;;;;4976181;28;20042;-85
2023/04/08 09:40:14;;;;;;;25.58;21.73;;;10.00;99.90;;;;;;4975522;28;20062;-86
2023/04/08 09:42:51;;;;;;;25.83;22.10;;;10.00;99.90;;;;;;4975858;28;20094;-84
2023/04/08 09:45:18;;;;;;;28.50;22.30;;;10.10;99.90;;;;;;4975207;28;20023;-86
2023/04/08 09:48:00;;;;;;;29.60;25.08;;;10.40;99.90;;;;;;4973725;28;20057;-86
2023/04/08 09:50:30;;;;;;;29.95;25.02;;;10.20;99.90;;;;;;4971836;28;20126;-86
2023/04/08 09:53:01;;;;;;;30.25;22.83;;;10.20;99.90;;;;;;4972424;28;20569;-87
2023/04/08 09:55:31;;;;;;;30.70;24.02;;;11.00;99.90;;;;;;4973709;28;20166;-86
2023/04/08 09:58:37;;;;;;;29.85;24.00;;;10.40;99.90;;;;;;4972021;28;20026;-87
2023/04/08 10:01:04;;;;;;;35.03;24.75;;;11.40;99.90;;;;;;4971999;28;20058;-89
2023/04/08 10:03:37;;;;;;;41.25;25.63;;;11.30;99.90;;;;;;4973227;28;20037;-85
2023/04/08 10:06:16;;;;;;;32.90;26.02;;;10.50;99.90;;;;;;4974907;28;20026;-85
2023/04/08 10:08:57;;;;;;;30.55;24.63;;;10.10;99.90;;;;;;4975721;28;20023;-84
2023/04/08 10:11:23;;;;;;;28.42;23.42;;;11.00;99.90;;;;;;4975210;28;20558;-85
2023/04/08 10:14:00;;;;;;;32.97;23.75;;;10.80;99.90;;;;;;4974316;28;20125;-85
2023/04/08 10:16:34;;;;;;;31.40;22.85;;;10.80;99.90;;;;;;4974738;28;20398;-85
2023/04/08 10:19:41;;;;;;;25.85;22.92;;;11.60;99.90;;;;;;4975625;28;20415;-86
2023/04/08 10:22:32;;;;;;;21.63;19.42;;;11.00;99.90;;;;;;4936031;28;20113;-86
2023/04/08 10:25:15;;;;;;;21.98;18.52;;;10.90;99.90;;;;;;4974705;28;20116;-85
2023/04/08 10:27:42;;;;;;;21.88;18.63;;;11.00;99.90;;;;;;4973526;28;20027;-84
2023/04/08 10:30:26;;;;;;;24.33;19.10;;;11.00;99.90;;;;;;4974464;28;20033;-84
2023/04/08 10:32:56;;;;;;;22.58;18.67;;;11.10;99.90;;;;;;4974275;28;20026;-84
2023/04/08 10:35:30;;;;;;;23.58;18.98;;;11.10;99.90;;;;;;4974360;28;20022;-85
2023/04/08 10:37:57;;;;;;;20.88;18.58;;;11.20;99.90;;;;;;4972728;28;20039;-84
2023/04/08 10:40:23;;;;;;;26.75;19.48;;;11.20;99.90;;;;;;4974868;28;20023;-84
2023/04/08 10:42:58;;;;;;;26.88;20.30;;;11.30;99.90;;;;;;4973796;28;20034;-84
2023/04/08 10:45:25;;;;;;;27.63;20.42;;;11.30;99.90;;;;;;4973126;28;20034;-85
2023/04/08 10:47:51;;;;;;;21.77;18.98;;;11.40;99.90;;;;;;4975063;28;20035;-85
2023/04/08 10:50:18;;;;;;;22.52;19.40;;;11.40;99.90;;;;;;4974581;28;20053;-84
2023/04/08 10:52:48;;;;;;;20.20;18.02;;;11.50;99.90;;;;;;4974619;28;20035;-85
2023/04/08 10:55:15;;;;;;;25.73;17.77;;;11.50;99.90;;;;;;4975159;28;20027;-84
2023/04/08 10:57:41;;;;;;;18.63;16.63;;;11.70;99.90;;;;;;4973612;28;20050;-85
2023/04/08 11:00:10;;;;;;;20.08;15.75;;;11.60;99.90;;;;;;4975008;28;20426;-85
2023/04/08 11:02:38;;;;;;;24.08;17.08;;;11.60;99.90;;;;;;4973844;28;20073;-84
2023/04/08 11:05:04;;;;;;;19.08;17.02;;;11.70;99.90;;;;;;4974985;28;20046;-84
2023/04/08 11:07:30;;;;;;;20.27;15.30;;;11.70;99.90;;;;;;4974812;28;20034;-85
2023/04/08 11:09:56;;;;;;;15.93;13.95;;;11.70;99.90;;;;;;4973246;28;20019;-85
2023/04/08 11:12:21;;;;;;;15.88;14.40;;;11.80;99.90;;;;;;4970891;28;20526;-87
2023/04/08 11:14:48;;;;;;;16.17;13.55;;;12.40;99.90;;;;;;4972701;28;20035;-85
2023/04/08 11:17:15;;;;;;;20.17;14.45;;;11.80;99.90;;;;;;4972937;28;20043;-85
2023/04/08 11:19:41;;;;;;;15.98;14.27;;;11.90;99.90;;;;;;4973512;28;20023;-85
2023/04/08 11:22:09;;;;;;;17.40;14.15;;;11.90;99.90;;;;;;4973779;28;20019;-85
2023/04/08 11:24:36;;;;;;;18.27;15.07;;;11.90;99.90;;;;;;4971888;28;20109;-85
2023/04/08 11:27:16;;;;;;;17.58;15.77;;;12.80;99.90;;;;;;4972028;28;20085;-85
2023/04/08 11:29:55;;;;;;;16.05;13.75;;;12.10;99.90;;;;;;4971607;28;20140;-85
2023/04/08 11:32:31;;;;;;;15.02;13.43;;;12.20;99.90;;;;;;4954148;29;20483;-85
2023/04/08 11:35:06;;;;;;;15.52;13.57;;;11.80;99.90;;;;;;4955025;29;20458;-84
2023/04/08 11:37:46;;;;;;;15.07;13.30;;;12.10;99.90;;;;;;4954769;29;20028;-86
2023/04/08 11:40:23;;;;;;;14.55;12.98;;;11.80;99.90;;;;;;4955050;29;20027;-86
2023/04/08 11:42:54;;;;;;;18.55;13.43;;;12.10;99.90;;;;;;4958743;28;20030;-85
2023/04/08 11:45:21;;;;;;;14.32;12.93;;;13.00;99.90;;;;;;4972856;28;20029;-86
2023/04/08 11:47:55;;;;;;;15.77;13.40;;;12.70;99.90;;;;;;4971345;28;20023;-86
2023/04/08 11:50:23;;;;;;;14.95;13.40;;;13.20;99.90;;;;;;4973832;28;20023;-86
2023/04/08 11:52:59;;;;;;;15.55;13.13;;;12.70;99.90;;;;;;4972101;28;20039;-86
2023/04/08 11:55:25;;;;;;;14.50;13.10;;;12.30;99.90;;;;;;4972599;28;20015;-85
2023/04/08 11:58:02;;;;;;;16.17;12.45;;;13.20;99.90;;;;;;4973123;28;20034;-85
2023/04/08 12:00:41;;;;;;;14.07;12.68;;;11.90;99.90;;;;;;4972210;28;20131;-85
2023/04/08 12:03:25;;;;;;;13.00;11.80;;;12.30;99.90;;;;;;4971780;28;20062;-84
2023/04/08 12:05:50;;;;;;;18.60;13.98;;;13.00;99.90;;;;;;4969891;28;20479;-85
2023/04/08 12:08:19;;;;;;;16.48;12.68;;;13.50;99.90;;;;;;4970764;28;20156;-85
2023/04/08 12:10:45;;;;;;;16.27;12.15;;;11.30;99.90;;;;;;4967595;28;20053;-85
2023/04/08 12:13:16;;;;;;;13.55;12.15;;;12.60;99.90;;;;;;4970594;28;20055;-85
2023/04/08 12:15:45;;;;;;;14.35;11.52;;;12.80;99.90;;;;;;4971476;28;20411;-85
2023/04/08 12:18:10;;;;;;;12.23;10.90;;;12.70;99.90;;;;;;4973524;28;20110;-85
2023/04/08 12:20:36;;;;;;;12.40;11.20;;;13.10;99.90;;;;;;4972985;28;20027;-85
2023/04/08 12:23:01;;;;;;;12.65;10.98;;;12.80;99.90;;;;;;4972968;28;20023;-84
2023/04/08 12:25:28;;;;;;;12.55;10.68;;;12.80;99.90;;;;;;4973681;28;20023;-87
2023/04/08 12:27:53;;;;;;;13.73;11.93;;;12.80;99.90;;;;;;4973212;28;20046;-86
2023/04/08 12:30:37;;;;;;;13.55;12.23;;;12.90;99.90;;;;;;4973300;28;20077;-88
2023/04/08 12:33:11;;;;;;;12.90;11.60;;;12.50;99.90;;;;;;4971456;28;20026;-85
2023/04/08 12:35:36;;;;;;;13.10;11.68;;;14.00;99.90;;;;;;4970739;28;20497;-85